普天間 の空港の天気 - METARとTAF

普天間飛行場 ( ROTM / ) - 沖縄県宜野湾市
飛行場実況気象(Metar)
観測時間10/24 16:56 JST (10/24 07:56 UTC)
風向・風速北北東 6m/s 瞬間風速9m/s
視程10km以上
天気現象
全天の4割程度の雲 雲底高度 1310m
全天の8割程度の雲 雲底高度 5490m
気温22.2℃
湿度48%
気圧1015.8hPa
METARROTM 240756Z 03012G17KT 9999 SCT043 BKN180 22/11 A3004 RMK SLP158 T02220106
過去の天気等 Google飛行場航空写真 Wunderground天気予報

過去48時間のMETAR

飛行場予報(TAF)
発表時間: -
25日4時 JST ~ 25日6時 JST に徐々に
風向・風速北北東 6m/s
視程10km以上
全天の4割程度の雲 雲底高度 910m
全天の4割程度の雲 雲底高度 1220m
TAF ROTM 2403/2503 01010KT 9999 FEW035 SCT045 QNH3003INS
BECMG 2419/2421 03012KT 9999 SCT030 SCT040 QNH3005INS T24/2405Z T20/2421Z
日本の空港のMETAR・TAFへのリンク

RJTT 東京国際空港
RJAA 新東京国際空港
RJBB 関西国際空港
RJOO 大阪空港
RJGG 中部国際空港
RJCC 新千歳空港
RJFF 福岡空港
ROAH 那覇空港


RJEC 旭川空港
RJCH 函館空港
RJCK 釧路空港
RJCM 女満別空港
RJCB 帯広空港
RJSA 青森空港
RJSS 仙台空港
RJSK 秋田空港
RJSF 福島空港
RJAH 茨城空港
RJSN 新潟空港
RJNT 富山空港
RJNK 小松飛行場
RJNS 静岡空港
RJOH 美保飛行場
RJOC 出雲空港
RJOB 岡山空港
RJOA 広島空港
RJOI 岩国飛行場
RJOT 高松空港
RJOM 松山空港
RJOK 高知空港
RJFR 北九州空港
RJFT 熊本空港
RJFU 長崎空港
RJFS 佐賀空港
RJFO 大分空港
RJFM 宮崎空港
RJFK 鹿児島空港
ROIG 石垣島空港
RJTY 横田飛行場
ROTM 普天間飛行場
RODN 嘉手納飛行場